Pagosa Springs, Colorado
Current Conditions -  °F | °C
As of 7:15 AM on Thursday 18 Dec 2014 (Local Time) from KPSO Reporting Station
Overcast Overcast  
Wind Chill: 28°   Ceiling: 2600
Heat Index: 28°   Visibility: 10mi
Dew Point: 27°   Wind: 0mph
Humidity: 98%   Direction: NA
Pressure: 30.1"   Gusts: NA
Location:  37.27°N, 107.02°W
Report Text: KPSO 181415Z AUTO 00000KT 10SM SCT015 OVC026 M02/M03 A3010 RMK AO2 T10231026
Loading
Personal Weather Stations






























Interactive Weather Map New forecast layout! Learn more

10-Day Weather Forecast

Advertisements
Track Severe Weather on mobile